Airfield :
LOGIN :

Register | Disclaimer

   EN    FR    IT 

 










Legend :    VFR   Marginal VFR   IFR   Intensive IFR   Very Intensive IFR
Visi :
Ceiling :
>= 8 km
>= 3000ft
5 to 8 km
1000 to 3000 ft
1500m to 5 km
500 to 1000 ft
800 to 1500m
200 to 500 ft
< 800m
< 200 ft
Symbols :   Thunderstorms  Fog  Heavy snow  Heavy precipitations  Wind > 20 kt
SIGMETs :     Misc.  Thunderstorms  Icing  Turbulence  Mountain Waves  Volcanic Ashes






- Airport Elevation : 584 ft


LFPV - Villacoublay Vélizy

CURRENT METAR :
  • 200900Z AUTO 03008KT CAVOK 03/01 Q1046 TEMPO BKN014

EXPIRED METARs :
  • 200830Z AUTO 03006KT 9999 FEW012 02/00 Q1046 TEMPO BKN014
  • 200800Z AUTO 03007KT CAVOK 02/00 Q1046 TEMPO BKN008
  • 200730Z AUTO 04007KT CAVOK 02/00 Q1045 TEMPO BKN008
  • 200700Z AUTO 04008KT CAVOK 02/00 Q1045 TEMPO BKN008
  • 200630Z AUTO 04008KT CAVOK 02/00 Q1045 TEMPO BKN008

TAF TAF LFPV
Valid from the 20 at 09:00 until the 21 at 09:00 UTC


200800Z 2009/2109 03008KT CAVOK
TEMPO 2010/2015 BKN014
PROB40 2022/2108 3000 BR OVC003



MET'MAP, your aeronautical weather chart ! - Copyright ORBIFLY December 2007 - Disclaimer

ORBIFLY MET'MAP TEAM :

Programming & Development : Alexandra Zaïnal
Concept & original design : Baudouin d'Aumeries
Assistance for programming : Marc-Olivier Méhu
Technical & hardware support : Manuel Goepfert

Contact : metmap@orbifly.com




SOURCES & CREDITS :

   NOAA